SDM3170 ULLI-HESH
Flight info
| Callsign | SDM3170 |
|---|---|
| Flight time | 4h 45m |
| Altitude | 31000 |
| Route | SUGIN1B SUGIN T873 PINOK N50 NUDKO T561 GODBI N609 BERUN P29 ODNIV DCT IPRUS DCT KUGOS/N0469F310 UW101 INB UA28 BAG UP29 AYT UM855 TOMBI M855 RASDA A16 CVO L677 MENLI DCT KAPIT IVUTA1G |
| Aircraft | T154/M-SDGRWY/S |
Departure
| Time | 2026-05-04 05:37 |
|---|---|
| Airport | Pulkovo Airport (ULLI) |
Arrival
| Time | 2026-05-04 10:22 |
|---|---|
| Airport | Sharm El Sheikh International Airport (HESH) |
| Time | Latitude | Longitude | Altitude | Speed | Heading |
|---|---|---|---|---|---|
| 2026-05-04 04:58 | 59.79607 | 30.26185 | 91 ft | 0 kts | 287° |
| 2026-05-04 05:33 | 59.79612 | 30.26155 | 90 ft | 3 kts | 288° |
| 2026-05-04 05:33 | 59.79614 | 30.26123 | 90 ft | 2 kts | 261° |
| 2026-05-04 05:33 | 59.79602 | 30.26059 | 90 ft | 3 kts | 239° |
| 2026-05-04 05:33 | 59.79588 | 30.26029 | 90 ft | 5 kts | 206° |
| 2026-05-04 05:34 | 59.79543 | 30.26102 | 90 ft | 9 kts | 114° |
| 2026-05-04 05:34 | 59.79519 | 30.26246 | 90 ft | 12 kts | 105° |
| 2026-05-04 05:34 | 59.79507 | 30.26326 | 90 ft | 10 kts | 108° |
| 2026-05-04 05:34 | 59.79434 | 30.26420 | 90 ft | 10 kts | 193° |
| 2026-05-04 05:35 | 59.79413 | 30.26407 | 90 ft | 0 kts | 196° |
| 2026-05-04 05:35 | 59.79407 | 30.26404 | 90 ft | 4 kts | 195° |
| 2026-05-04 05:35 | 59.79343 | 30.26310 | 90 ft | 0 kts | 275° |
| 2026-05-04 05:36 | 59.79348 | 30.26221 | 90 ft | 31 kts | 278° |
| 2026-05-04 05:36 | 59.79476 | 30.25289 | 91 ft | 104 kts | 288° |
| 2026-05-04 05:36 | 59.79736 | 30.23484 | 91 ft | 163 kts | 289° |
| 2026-05-04 05:36 | 59.80101 | 30.21228 | 522 ft | 177 kts | 291° |
| 2026-05-04 05:37 | 59.80589 | 30.18907 | 1031 ft | 193 kts | 292° |
| 2026-05-04 05:37 | 59.81172 | 30.15308 | 1670 ft | 216 kts | 283° |
| 2026-05-04 05:37 | 59.81392 | 30.13346 | 2127 ft | 220 kts | 283° |
| 2026-05-04 05:38 | 59.82126 | 30.07372 | 3621 ft | 224 kts | 286° |
| 2026-05-04 05:38 | 59.82541 | 30.04406 | 4385 ft | 224 kts | 287° |
| 2026-05-04 05:38 | 59.82921 | 30.01409 | 5143 ft | 224 kts | 278° |
| 2026-05-04 05:38 | 59.82440 | 29.97450 | 6040 ft | 232 kts | 236° |
| 2026-05-04 05:39 | 59.81658 | 29.95981 | 6476 ft | 238 kts | 215° |
| 2026-05-04 05:39 | 59.78536 | 29.93929 | 7935 ft | 238 kts | 198° |
| 2026-05-04 05:39 | 59.76417 | 29.92873 | 8868 ft | 236 kts | 198° |
| 2026-05-04 05:40 | 59.73260 | 29.94352 | 10112 ft | 254 kts | 140° |
| 2026-05-04 05:40 | 59.72553 | 29.96198 | 10508 ft | 259 kts | 120° |
| 2026-05-04 05:40 | 59.71760 | 30.00683 | 11400 ft | 258 kts | 108° |
| 2026-05-04 05:41 | 59.71451 | 30.02989 | 11519 ft | 273 kts | 108° |
| 2026-05-04 05:41 | 59.70920 | 30.06898 | 11335 ft | 304 kts | 108° |
| 2026-05-04 05:41 | 59.70316 | 30.11178 | 11318 ft | 339 kts | 108° |
| 2026-05-04 05:41 | 59.69641 | 30.15836 | 11406 ft | 371 kts | 107° |
| 2026-05-04 05:42 | 59.69304 | 30.20941 | 11710 ft | 369 kts | 92° |
| 2026-05-04 05:42 | 59.69301 | 30.26066 | 12189 ft | 374 kts | 91° |
| 2026-05-04 05:42 | 59.69305 | 30.31223 | 12740 ft | 381 kts | 91° |
| 2026-05-04 05:42 | 59.69225 | 30.36494 | 13294 ft | 379 kts | 98° |
| 2026-05-04 05:43 | 59.68739 | 30.41620 | 13871 ft | 382 kts | 105° |
| 2026-05-04 05:43 | 59.68114 | 30.46768 | 14449 ft | 386 kts | 105° |
| 2026-05-04 05:43 | 59.67497 | 30.51949 | 15030 ft | 389 kts | 104° |
| 2026-05-04 05:45 | 59.63860 | 30.89962 | 19033 ft | 414 kts | 99° |
| 2026-05-04 05:45 | 59.63242 | 30.97498 | 19813 ft | 419 kts | 100° |
| 2026-05-04 05:47 | 59.59734 | 31.38546 | 24275 ft | 443 kts | 99° |
| 2026-05-04 05:47 | 59.59385 | 31.42533 | 24716 ft | 444 kts | 99° |
| 2026-05-04 05:47 | 59.58677 | 31.50590 | 25598 ft | 445 kts | 99° |
| 2026-05-04 05:48 | 59.58151 | 31.56534 | 26236 ft | 446 kts | 99° |
| 2026-05-04 05:48 | 59.57786 | 31.60640 | 26670 ft | 446 kts | 99° |
| 2026-05-04 05:48 | 59.57068 | 31.68677 | 27462 ft | 448 kts | 100° |
| 2026-05-04 05:48 | 59.56708 | 31.72697 | 27816 ft | 449 kts | 100° |
| 2026-05-04 05:49 | 59.56163 | 31.78749 | 28349 ft | 451 kts | 100° |
| 2026-05-04 05:49 | 59.55611 | 31.84847 | 28885 ft | 452 kts | 100° |
| 2026-05-04 05:49 | 59.55055 | 31.90939 | 29415 ft | 453 kts | 100° |
| 2026-05-04 05:49 | 59.54498 | 31.97016 | 29937 ft | 454 kts | 100° |
| 2026-05-04 05:51 | 59.43467 | 32.33603 | 30791 ft | 489 kts | 152° |
| 2026-05-04 05:51 | 59.40646 | 32.37192 | 30803 ft | 481 kts | 146° |
| 2026-05-04 05:52 | 59.35508 | 32.45735 | 30811 ft | 490 kts | 138° |
| 2026-05-04 05:52 | 59.30648 | 32.54927 | 30794 ft | 488 kts | 137° |
| 2026-05-04 05:54 | 59.11769 | 32.91070 | 31010 ft | 469 kts | 136° |
| 2026-05-04 05:55 | 59.07091 | 32.99924 | 31011 ft | 470 kts | 136° |
| 2026-05-04 05:55 | 59.02450 | 33.08673 | 31010 ft | 469 kts | 136° |
| 2026-05-04 05:56 | 58.97765 | 33.17472 | 31013 ft | 469 kts | 136° |
| 2026-05-04 05:56 | 58.93086 | 33.26223 | 31013 ft | 469 kts | 136° |
| 2026-05-04 05:57 | 58.88382 | 33.34976 | 30988 ft | 469 kts | 136° |
| 2026-05-04 05:57 | 58.83682 | 33.43641 | 31007 ft | 470 kts | 136° |
| 2026-05-04 05:58 | 58.78951 | 33.52366 | 31009 ft | 469 kts | 136° |
| 2026-05-04 05:58 | 58.74268 | 33.60984 | 31011 ft | 469 kts | 136° |
| 2026-05-04 05:59 | 58.69548 | 33.69650 | 31012 ft | 469 kts | 136° |
| 2026-05-04 05:59 | 58.64814 | 33.78321 | 31014 ft | 469 kts | 136° |
| 2026-05-04 06:00 | 58.60118 | 33.86871 | 31014 ft | 469 kts | 136° |
| 2026-05-04 06:00 | 58.55365 | 33.95483 | 31015 ft | 469 kts | 136° |
| 2026-05-04 06:01 | 58.50626 | 34.04036 | 31015 ft | 469 kts | 136° |
| 2026-05-04 06:03 | 58.31643 | 34.37970 | 31017 ft | 469 kts | 136° |
| 2026-05-04 06:05 | 58.13674 | 34.63734 | 31002 ft | 471 kts | 158° |
| 2026-05-04 06:05 | 58.07633 | 34.68294 | 31008 ft | 469 kts | 158° |
| 2026-05-04 06:06 | 58.01654 | 34.73056 | 31011 ft | 469 kts | 157° |
| 2026-05-04 06:06 | 57.95665 | 34.77861 | 31013 ft | 469 kts | 157° |
| 2026-05-04 06:07 | 57.88702 | 34.83431 | 30989 ft | 470 kts | 157° |
| 2026-05-04 06:07 | 57.83718 | 34.87382 | 31013 ft | 470 kts | 157° |
| 2026-05-04 06:08 | 57.77695 | 34.92156 | 31011 ft | 469 kts | 157° |
| 2026-05-04 06:08 | 57.71722 | 34.96787 | 31007 ft | 469 kts | 163° |
| 2026-05-04 06:08 | 57.68527 | 34.97836 | 31011 ft | 469 kts | 179° |
| 2026-05-04 06:09 | 57.65241 | 34.97644 | 31036 ft | 471 kts | 184° |
| 2026-05-04 06:11 | 57.39284 | 34.96160 | 31011 ft | 469 kts | 181° |
| 2026-05-04 06:13 | 57.13265 | 34.95316 | 31012 ft | 469 kts | 181° |
| 2026-05-04 06:14 | 56.90501 | 34.94587 | 31014 ft | 469 kts | 181° |
| 2026-05-04 06:15 | 56.83991 | 34.94859 | 31021 ft | 469 kts | 178° |
| 2026-05-04 06:15 | 56.77483 | 34.95261 | 31014 ft | 469 kts | 178° |
| 2026-05-04 06:16 | 56.70986 | 34.95600 | 31014 ft | 469 kts | 178° |
| 2026-05-04 06:16 | 56.64496 | 34.95921 | 31013 ft | 469 kts | 178° |
| 2026-05-04 06:17 | 56.58005 | 34.96239 | 31014 ft | 469 kts | 178° |
| 2026-05-04 06:17 | 56.50389 | 34.96610 | 31014 ft | 469 kts | 178° |
| 2026-05-04 06:18 | 56.44987 | 34.96873 | 31014 ft | 469 kts | 178° |
| 2026-05-04 06:20 | 56.19059 | 35.00323 | 31015 ft | 469 kts | 175° |
| 2026-05-04 06:21 | 56.02813 | 35.02576 | 31016 ft | 469 kts | 175° |
| 2026-05-04 06:22 | 55.96350 | 35.03462 | 31016 ft | 469 kts | 175° |
| 2026-05-04 06:25 | 55.50899 | 35.09331 | 31015 ft | 469 kts | 176° |
| 2026-05-04 06:26 | 55.44428 | 35.10190 | 31014 ft | 469 kts | 175° |
| 2026-05-04 06:26 | 55.37923 | 35.11068 | 31015 ft | 469 kts | 175° |
| 2026-05-04 06:27 | 55.21721 | 35.13207 | 31015 ft | 469 kts | 175° |
| 2026-05-04 06:28 | 55.15229 | 35.14057 | 31015 ft | 469 kts | 175° |
| 2026-05-04 06:28 | 55.08769 | 35.15245 | 31012 ft | 470 kts | 173° |
| 2026-05-04 06:29 | 55.02287 | 35.16581 | 31013 ft | 469 kts | 173° |
| 2026-05-04 06:29 | 54.95869 | 35.17848 | 31015 ft | 469 kts | 173° |
| 2026-05-04 06:30 | 54.89395 | 35.19107 | 31009 ft | 470 kts | 173° |
| 2026-05-04 06:30 | 54.82939 | 35.20351 | 31010 ft | 470 kts | 173° |
| 2026-05-04 06:31 | 54.76490 | 35.21593 | 31010 ft | 469 kts | 173° |
| 2026-05-04 06:31 | 54.70023 | 35.22758 | 31018 ft | 469 kts | 175° |
| 2026-05-04 06:33 | 54.44111 | 35.26590 | 31014 ft | 469 kts | 175° |
| 2026-05-04 06:34 | 54.37600 | 35.27563 | 31014 ft | 469 kts | 175° |
| 2026-05-04 06:34 | 54.31147 | 35.28524 | 31014 ft | 469 kts | 175° |
| 2026-05-04 06:36 | 54.05194 | 35.32361 | 31014 ft | 469 kts | 175° |
| 2026-05-04 06:37 | 53.98728 | 35.33310 | 31014 ft | 469 kts | 175° |
| 2026-05-04 06:37 | 53.92277 | 35.34253 | 31014 ft | 469 kts | 175° |
| 2026-05-04 06:38 | 53.85741 | 35.35203 | 31014 ft | 468 kts | 175° |
| 2026-05-04 06:40 | 53.59828 | 35.38945 | 31011 ft | 469 kts | 175° |
| 2026-05-04 06:40 | 53.53357 | 35.39874 | 31011 ft | 469 kts | 175° |
| 2026-05-04 06:41 | 53.46867 | 35.40802 | 31012 ft | 469 kts | 175° |
| 2026-05-04 06:41 | 53.40381 | 35.41727 | 31012 ft | 469 kts | 175° |
| 2026-05-04 06:42 | 53.33913 | 35.42623 | 31014 ft | 469 kts | 175° |
| 2026-05-04 06:44 | 53.07984 | 35.45951 | 31014 ft | 469 kts | 175° |
| 2026-05-04 06:44 | 53.01481 | 35.46784 | 31014 ft | 469 kts | 175° |
| 2026-05-04 06:45 | 52.95019 | 35.47610 | 31015 ft | 469 kts | 175° |
| 2026-05-04 06:45 | 52.88513 | 35.48438 | 30984 ft | 470 kts | 175° |
| 2026-05-04 06:46 | 52.82008 | 35.49260 | 31002 ft | 470 kts | 175° |
| 2026-05-04 06:46 | 52.75539 | 35.50077 | 31006 ft | 469 kts | 175° |
| 2026-05-04 06:48 | 52.49559 | 35.52528 | 31010 ft | 469 kts | 176° |
| 2026-05-04 06:50 | 52.23603 | 35.54717 | 31012 ft | 469 kts | 176° |
| 2026-05-04 06:51 | 52.17099 | 35.55262 | 31012 ft | 469 kts | 176° |
| 2026-05-04 06:51 | 52.10575 | 35.55807 | 31013 ft | 469 kts | 176° |
| 2026-05-04 06:52 | 52.04096 | 35.56347 | 31013 ft | 469 kts | 176° |
| 2026-05-04 06:52 | 51.97628 | 35.56884 | 31013 ft | 469 kts | 176° |
| 2026-05-04 06:53 | 51.91093 | 35.57424 | 31014 ft | 469 kts | 176° |
| 2026-05-04 06:53 | 51.84595 | 35.57959 | 31025 ft | 468 kts | 176° |
| 2026-05-04 06:54 | 51.78092 | 35.58492 | 31014 ft | 469 kts | 176° |
| 2026-05-04 06:54 | 51.71615 | 35.59024 | 31011 ft | 469 kts | 176° |
| 2026-05-04 06:55 | 51.65135 | 35.59554 | 31011 ft | 469 kts | 176° |
| 2026-05-04 06:55 | 51.57533 | 35.60175 | 31011 ft | 469 kts | 176° |
| 2026-05-04 06:57 | 51.32639 | 35.62191 | 31012 ft | 469 kts | 176° |
| 2026-05-04 06:58 | 51.26134 | 35.62715 | 31012 ft | 469 kts | 176° |
| 2026-05-04 06:58 | 51.19649 | 35.63235 | 31012 ft | 469 kts | 176° |
| 2026-05-04 06:59 | 51.13154 | 35.63753 | 31012 ft | 469 kts | 176° |
| 2026-05-04 06:59 | 51.06678 | 35.64262 | 31013 ft | 469 kts | 176° |
| 2026-05-04 07:01 | 50.80660 | 35.66350 | 31004 ft | 470 kts | 177° |
| 2026-05-04 07:02 | 50.74161 | 35.66860 | 31004 ft | 469 kts | 177° |
| 2026-05-04 07:02 | 50.67659 | 35.67369 | 31006 ft | 469 kts | 177° |
| 2026-05-04 07:03 | 50.61172 | 35.67875 | 31006 ft | 469 kts | 177° |
| 2026-05-04 07:03 | 50.54708 | 35.68379 | 31007 ft | 469 kts | 177° |
| 2026-05-04 07:04 | 50.48216 | 35.68883 | 31007 ft | 469 kts | 177° |
| 2026-05-04 07:04 | 50.41712 | 35.69386 | 31005 ft | 469 kts | 177° |
| 2026-05-04 07:05 | 50.35183 | 35.69876 | 31006 ft | 469 kts | 179° |
| 2026-05-04 07:05 | 50.31996 | 35.69399 | 31037 ft | 469 kts | 190° |
| 2026-05-04 07:05 | 50.28799 | 35.68419 | 31008 ft | 471 kts | 192° |
| 2026-05-04 07:06 | 50.19180 | 35.65596 | 31010 ft | 469 kts | 190° |
| 2026-05-04 07:07 | 50.12756 | 35.63892 | 31008 ft | 469 kts | 189° |
| 2026-05-04 07:09 | 49.87134 | 35.57234 | 30988 ft | 469 kts | 189° |
| 2026-05-04 07:09 | 49.80685 | 35.55576 | 31007 ft | 470 kts | 189° |
| 2026-05-04 07:10 | 49.74270 | 35.53927 | 31009 ft | 469 kts | 189° |
| 2026-05-04 07:12 | 49.47535 | 35.47090 | 31009 ft | 469 kts | 189° |
| 2026-05-04 07:12 | 49.42220 | 35.45740 | 31010 ft | 469 kts | 189° |
| 2026-05-04 07:13 | 49.35807 | 35.44019 | 31020 ft | 469 kts | 193° |
| 2026-05-04 07:13 | 49.29491 | 35.41759 | 31008 ft | 469 kts | 193° |
| 2026-05-04 07:14 | 49.13612 | 35.36279 | 31008 ft | 469 kts | 193° |
| 2026-05-04 07:15 | 49.06185 | 35.33749 | 31013 ft | 469 kts | 192° |
| 2026-05-04 07:15 | 48.99845 | 35.31583 | 31012 ft | 469 kts | 192° |
| 2026-05-04 07:16 | 48.94548 | 35.29792 | 31011 ft | 469 kts | 192° |
| 2026-05-04 07:16 | 48.88218 | 35.27663 | 30979 ft | 470 kts | 192° |
| 2026-05-04 07:17 | 48.80771 | 35.25177 | 31005 ft | 470 kts | 192° |
| 2026-05-04 07:17 | 48.75513 | 35.23421 | 31004 ft | 469 kts | 192° |
| 2026-05-04 07:18 | 48.69163 | 35.21302 | 31007 ft | 469 kts | 192° |
| 2026-05-04 07:18 | 48.61758 | 35.18838 | 31008 ft | 469 kts | 192° |
| 2026-05-04 07:19 | 48.56433 | 35.17072 | 31008 ft | 469 kts | 192° |
| 2026-05-04 07:19 | 48.49038 | 35.14624 | 31007 ft | 469 kts | 192° |
| 2026-05-04 07:20 | 48.43762 | 35.12882 | 31007 ft | 469 kts | 192° |
| 2026-05-04 07:20 | 48.37392 | 35.10783 | 31007 ft | 469 kts | 192° |
| 2026-05-04 07:22 | 48.14691 | 35.09393 | 31009 ft | 469 kts | 181° |
| 2026-05-04 07:22 | 48.10359 | 35.09209 | 31008 ft | 469 kts | 181° |
| 2026-05-04 07:23 | 48.04955 | 35.08977 | 31009 ft | 469 kts | 181° |
| 2026-05-04 07:23 | 47.98452 | 35.08698 | 31009 ft | 469 kts | 181° |
| 2026-05-04 07:24 | 47.91921 | 35.08419 | 31008 ft | 469 kts | 181° |
| 2026-05-04 07:24 | 47.84373 | 35.08098 | 31026 ft | 469 kts | 181° |
| 2026-05-04 07:26 | 47.59431 | 35.07040 | 31010 ft | 469 kts | 181° |
| 2026-05-04 07:27 | 47.52947 | 35.06767 | 31011 ft | 469 kts | 181° |
| 2026-05-04 07:27 | 47.46433 | 35.06493 | 31011 ft | 469 kts | 181° |
| 2026-05-04 07:28 | 47.39924 | 35.06220 | 31011 ft | 469 kts | 181° |
| 2026-05-04 07:28 | 47.33410 | 35.05947 | 31009 ft | 469 kts | 181° |
| 2026-05-04 07:29 | 47.26925 | 35.05677 | 31010 ft | 469 kts | 181° |
| 2026-05-04 07:29 | 47.20425 | 35.05406 | 31010 ft | 469 kts | 181° |
| 2026-05-04 07:30 | 47.12835 | 35.05091 | 31010 ft | 469 kts | 181° |
| 2026-05-04 07:30 | 47.07442 | 35.04868 | 31010 ft | 469 kts | 181° |
| 2026-05-04 07:31 | 47.00935 | 35.04599 | 31009 ft | 469 kts | 181° |
| 2026-05-04 07:33 | 46.73830 | 35.03487 | 31008 ft | 469 kts | 181° |
| 2026-05-04 07:33 | 46.67309 | 35.03221 | 31010 ft | 469 kts | 181° |
| 2026-05-04 07:34 | 46.61900 | 35.03000 | 31010 ft | 469 kts | 181° |
| 2026-05-04 07:34 | 46.55422 | 35.02737 | 31011 ft | 469 kts | 181° |
| 2026-05-04 07:35 | 46.48996 | 35.01470 | 31019 ft | 470 kts | 192° |
| 2026-05-04 07:35 | 46.42624 | 34.99561 | 31011 ft | 469 kts | 191° |
| 2026-05-04 07:36 | 46.36219 | 34.97802 | 31011 ft | 469 kts | 190° |
| 2026-05-04 07:38 | 46.10643 | 34.91056 | 31009 ft | 469 kts | 190° |
| 2026-05-04 07:38 | 46.04241 | 34.89379 | 31010 ft | 469 kts | 190° |
| 2026-05-04 07:39 | 45.96755 | 34.87423 | 31010 ft | 469 kts | 190° |
| 2026-05-04 07:39 | 45.91460 | 34.86043 | 31009 ft | 469 kts | 190° |
| 2026-05-04 07:40 | 45.85018 | 34.84373 | 31026 ft | 468 kts | 190° |
| 2026-05-04 07:40 | 45.78619 | 34.82717 | 31016 ft | 469 kts | 190° |
| 2026-05-04 07:41 | 45.72228 | 34.81064 | 31012 ft | 469 kts | 190° |
| 2026-05-04 07:41 | 45.65850 | 34.79417 | 31012 ft | 469 kts | 190° |
| 2026-05-04 07:42 | 45.58373 | 34.77491 | 31010 ft | 469 kts | 190° |
| 2026-05-04 07:42 | 45.53027 | 34.76117 | 31010 ft | 469 kts | 190° |
| 2026-05-04 07:43 | 45.46646 | 34.74480 | 31010 ft | 469 kts | 190° |
| 2026-05-04 07:43 | 45.40238 | 34.72841 | 31011 ft | 469 kts | 190° |
| 2026-05-04 07:44 | 45.33859 | 34.71212 | 31010 ft | 469 kts | 190° |
| 2026-05-04 07:44 | 45.26352 | 34.69300 | 31009 ft | 469 kts | 190° |
| 2026-05-04 07:45 | 45.21034 | 34.67949 | 31010 ft | 469 kts | 190° |
| 2026-05-04 07:45 | 45.14628 | 34.66325 | 31010 ft | 469 kts | 190° |
| 2026-05-04 07:46 | 45.08214 | 34.64702 | 31010 ft | 469 kts | 190° |
| 2026-05-04 07:46 | 45.01845 | 34.63095 | 31008 ft | 469 kts | 190° |
| 2026-05-04 07:47 | 44.95435 | 34.61480 | 31008 ft | 469 kts | 190° |
| 2026-05-04 07:49 | 44.69814 | 34.55076 | 31009 ft | 469 kts | 190° |
| 2026-05-04 07:49 | 44.63435 | 34.53488 | 31010 ft | 469 kts | 190° |
| 2026-05-04 07:50 | 44.55935 | 34.51625 | 31010 ft | 469 kts | 190° |
| 2026-05-04 07:50 | 44.50606 | 34.50304 | 31010 ft | 469 kts | 190° |
| 2026-05-04 07:51 | 44.43150 | 34.48460 | 31009 ft | 469 kts | 190° |
| 2026-05-04 07:51 | 44.37799 | 34.47140 | 31009 ft | 469 kts | 190° |
| 2026-05-04 07:52 | 44.31405 | 34.45565 | 31009 ft | 469 kts | 190° |
| 2026-05-04 07:52 | 44.25006 | 34.43993 | 31010 ft | 469 kts | 190° |
| 2026-05-04 07:54 | 43.99380 | 34.37732 | 31009 ft | 469 kts | 190° |
| 2026-05-04 07:55 | 43.92965 | 34.36173 | 31009 ft | 469 kts | 190° |
| 2026-05-04 07:55 | 43.85479 | 34.34355 | 31019 ft | 468 kts | 189° |
| 2026-05-04 07:56 | 43.79087 | 34.32786 | 31014 ft | 469 kts | 189° |
| 2026-05-04 07:56 | 43.72697 | 34.31237 | 31011 ft | 469 kts | 189° |
| 2026-05-04 07:57 | 43.67356 | 34.29950 | 31011 ft | 469 kts | 189° |
| 2026-05-04 07:57 | 43.59854 | 34.28147 | 31009 ft | 469 kts | 189° |
| 2026-05-04 07:58 | 43.54521 | 34.26868 | 31009 ft | 469 kts | 189° |
| 2026-05-04 07:58 | 43.47051 | 34.25080 | 31009 ft | 469 kts | 189° |
| 2026-05-04 07:59 | 43.40650 | 34.23552 | 31010 ft | 469 kts | 189° |
| 2026-05-04 07:59 | 43.34226 | 34.22022 | 31010 ft | 469 kts | 189° |
| 2026-05-04 08:00 | 43.28909 | 34.20758 | 31008 ft | 469 kts | 189° |
| 2026-05-04 08:02 | 43.02201 | 34.14442 | 31007 ft | 469 kts | 189° |
| 2026-05-04 08:02 | 42.96856 | 34.13185 | 31008 ft | 469 kts | 189° |
| 2026-05-04 08:03 | 42.90462 | 34.11684 | 31008 ft | 469 kts | 189° |
| 2026-05-04 08:03 | 42.84026 | 34.10182 | 31024 ft | 469 kts | 189° |
| 2026-05-04 08:04 | 42.76559 | 34.08370 | 31007 ft | 469 kts | 195° |
| 2026-05-04 08:04 | 42.70460 | 34.05450 | 31003 ft | 470 kts | 200° |
| 2026-05-04 08:05 | 42.64333 | 34.02434 | 31007 ft | 469 kts | 199° |
| 2026-05-04 08:05 | 42.58186 | 33.99543 | 31011 ft | 469 kts | 199° |
| 2026-05-04 08:06 | 42.53027 | 33.97147 | 31011 ft | 469 kts | 199° |
| 2026-05-04 08:06 | 42.46886 | 33.94304 | 31011 ft | 469 kts | 199° |
| 2026-05-04 08:08 | 42.21245 | 33.82500 | 31011 ft | 469 kts | 199° |
| 2026-05-04 08:11 | 41.93523 | 33.69903 | 31012 ft | 469 kts | 199° |
| 2026-05-04 08:11 | 41.85425 | 33.65911 | 31028 ft | 468 kts | 200° |
| 2026-05-04 08:12 | 41.78274 | 33.62405 | 31017 ft | 469 kts | 200° |
| 2026-05-04 08:12 | 41.72186 | 33.59433 | 31015 ft | 469 kts | 200° |
| 2026-05-04 08:13 | 41.67082 | 33.56947 | 31014 ft | 469 kts | 200° |
| 2026-05-04 08:13 | 41.59951 | 33.53482 | 31012 ft | 469 kts | 200° |
| 2026-05-04 08:14 | 41.53859 | 33.50528 | 31012 ft | 469 kts | 200° |
| 2026-05-04 08:16 | 41.30399 | 33.39206 | 31011 ft | 469 kts | 200° |
| 2026-05-04 08:16 | 41.23252 | 33.35775 | 31012 ft | 469 kts | 200° |
| 2026-05-04 08:17 | 41.17166 | 33.32842 | 31018 ft | 469 kts | 200° |
| 2026-05-04 08:17 | 41.12067 | 33.30385 | 31014 ft | 469 kts | 199° |
| 2026-05-04 08:19 | 40.86568 | 33.18273 | 31005 ft | 468 kts | 199° |
| 2026-05-04 08:20 | 40.81448 | 33.15897 | 31007 ft | 470 kts | 199° |
| 2026-05-04 08:20 | 40.74298 | 33.12569 | 31010 ft | 469 kts | 199° |
| 2026-05-04 08:21 | 40.68174 | 33.09681 | 31011 ft | 469 kts | 199° |
| 2026-05-04 08:21 | 40.62061 | 33.06784 | 31012 ft | 469 kts | 199° |
| 2026-05-04 08:22 | 40.55942 | 33.03894 | 31012 ft | 469 kts | 199° |
| 2026-05-04 08:24 | 40.31430 | 32.92384 | 31011 ft | 469 kts | 199° |
| 2026-05-04 08:24 | 40.25294 | 32.89517 | 31012 ft | 469 kts | 199° |
| 2026-05-04 08:25 | 40.19202 | 32.86676 | 31009 ft | 469 kts | 199° |
| 2026-05-04 08:25 | 40.14084 | 32.84293 | 31010 ft | 469 kts | 199° |
| 2026-05-04 08:27 | 39.89585 | 32.69318 | 31009 ft | 469 kts | 207° |
| 2026-05-04 08:28 | 39.83791 | 32.65460 | 31013 ft | 470 kts | 207° |
| 2026-05-04 08:28 | 39.78950 | 32.62239 | 31016 ft | 469 kts | 207° |
| 2026-05-04 08:29 | 39.73197 | 32.58409 | 31014 ft | 469 kts | 207° |
| 2026-05-04 08:31 | 39.49057 | 32.42409 | 31012 ft | 469 kts | 207° |
| 2026-05-04 08:33 | 39.26842 | 32.27807 | 31015 ft | 469 kts | 206° |
| 2026-05-04 08:35 | 39.03589 | 32.12723 | 31013 ft | 469 kts | 206° |
| 2026-05-04 08:35 | 38.96801 | 32.08341 | 31013 ft | 469 kts | 206° |
| 2026-05-04 08:37 | 38.76445 | 31.95286 | 31007 ft | 469 kts | 206° |
| 2026-05-04 08:38 | 38.70638 | 31.91570 | 31010 ft | 469 kts | 206° |
| 2026-05-04 08:38 | 38.64797 | 31.87838 | 31010 ft | 469 kts | 206° |
| 2026-05-04 08:40 | 38.41514 | 31.73030 | 31010 ft | 469 kts | 206° |
| 2026-05-04 08:41 | 38.35719 | 31.69361 | 31010 ft | 469 kts | 206° |
| 2026-05-04 08:41 | 38.29898 | 31.65682 | 31008 ft | 469 kts | 206° |
| 2026-05-04 08:42 | 38.24073 | 31.62008 | 31008 ft | 469 kts | 206° |
| 2026-05-04 08:42 | 38.18227 | 31.58327 | 31009 ft | 469 kts | 206° |
| 2026-05-04 08:43 | 38.12398 | 31.54662 | 31009 ft | 469 kts | 206° |
| 2026-05-04 08:43 | 38.06564 | 31.51092 | 31008 ft | 469 kts | 205° |
| 2026-05-04 08:44 | 38.00653 | 31.47557 | 31007 ft | 469 kts | 205° |
| 2026-05-04 08:46 | 37.77155 | 31.33498 | 31000 ft | 469 kts | 205° |
| 2026-05-04 08:46 | 37.71287 | 31.29970 | 31010 ft | 469 kts | 205° |
| 2026-05-04 08:47 | 37.65392 | 31.26450 | 31011 ft | 469 kts | 205° |
| 2026-05-04 08:47 | 37.59509 | 31.22952 | 31013 ft | 469 kts | 205° |
| 2026-05-04 08:48 | 37.53625 | 31.19459 | 31013 ft | 469 kts | 205° |
| 2026-05-04 08:48 | 37.47724 | 31.15962 | 31011 ft | 469 kts | 205° |
| 2026-05-04 08:49 | 37.41835 | 31.12479 | 31011 ft | 469 kts | 205° |
| 2026-05-04 08:50 | 37.21663 | 30.99334 | 31011 ft | 469 kts | 208° |
| 2026-05-04 08:51 | 37.15941 | 30.95468 | 31010 ft | 469 kts | 208° |
| 2026-05-04 08:51 | 37.10200 | 30.91603 | 31011 ft | 469 kts | 208° |
| 2026-05-04 08:52 | 37.04455 | 30.87743 | 31011 ft | 469 kts | 208° |
| 2026-05-04 08:52 | 36.98723 | 30.83898 | 31011 ft | 469 kts | 208° |
| 2026-05-04 08:54 | 36.73630 | 30.80085 | 31012 ft | 469 kts | 178° |
| 2026-05-04 08:55 | 36.67134 | 30.80331 | 31009 ft | 469 kts | 178° |
| 2026-05-04 08:55 | 36.60621 | 30.80558 | 31009 ft | 469 kts | 178° |
| 2026-05-04 09:01 | 35.92397 | 30.83158 | 31008 ft | 469 kts | 177° |
| 2026-05-04 09:01 | 35.85957 | 30.83556 | 31018 ft | 468 kts | 177° |
| 2026-05-04 09:02 | 35.79440 | 30.83949 | 31013 ft | 469 kts | 177° |
| 2026-05-04 09:02 | 35.72956 | 30.84339 | 31008 ft | 469 kts | 177° |
| 2026-05-04 09:03 | 35.67521 | 30.84666 | 31009 ft | 469 kts | 177° |
| 2026-05-04 09:03 | 35.59980 | 30.85112 | 31010 ft | 469 kts | 178° |
| 2026-05-04 09:04 | 35.53481 | 30.85320 | 31008 ft | 469 kts | 179° |
| 2026-05-04 09:04 | 35.46968 | 30.85517 | 31009 ft | 469 kts | 178° |
| 2026-05-04 09:05 | 35.41543 | 30.85695 | 31008 ft | 469 kts | 178° |
| 2026-05-04 09:05 | 35.33969 | 30.85949 | 31008 ft | 469 kts | 178° |
| 2026-05-04 09:06 | 35.27489 | 30.86165 | 31009 ft | 469 kts | 178° |
| 2026-05-04 09:08 | 35.01466 | 30.87034 | 31008 ft | 469 kts | 178° |
| 2026-05-04 09:08 | 34.96061 | 30.87213 | 31008 ft | 469 kts | 178° |
| 2026-05-04 09:09 | 34.88456 | 30.87465 | 30980 ft | 470 kts | 178° |
| 2026-05-04 09:09 | 34.81972 | 30.87679 | 31004 ft | 470 kts | 178° |
| 2026-05-04 09:10 | 34.75463 | 30.87894 | 31008 ft | 469 kts | 178° |
| 2026-05-04 09:10 | 34.70034 | 30.88073 | 31011 ft | 469 kts | 178° |
| 2026-05-04 09:11 | 34.63565 | 30.88286 | 31011 ft | 469 kts | 178° |
| 2026-05-04 09:11 | 34.55975 | 30.88605 | 31010 ft | 469 kts | 177° |
| 2026-05-04 09:12 | 34.49455 | 30.88944 | 31009 ft | 469 kts | 178° |
| 2026-05-04 09:14 | 34.23483 | 30.90222 | 31009 ft | 469 kts | 178° |
| 2026-05-04 09:14 | 34.18064 | 30.90520 | 31008 ft | 469 kts | 177° |
| 2026-05-04 09:15 | 34.11575 | 30.90888 | 31009 ft | 469 kts | 177° |
| 2026-05-04 09:15 | 34.04012 | 30.91309 | 31010 ft | 469 kts | 177° |
| 2026-05-04 09:17 | 33.75837 | 30.92532 | 31008 ft | 469 kts | 178° |
| 2026-05-04 09:18 | 33.68259 | 30.92818 | 31010 ft | 469 kts | 178° |
| 2026-05-04 09:18 | 33.62873 | 30.93023 | 31010 ft | 469 kts | 178° |
| 2026-05-04 09:19 | 33.56361 | 30.93269 | 31009 ft | 469 kts | 178° |
| 2026-05-04 09:19 | 33.48763 | 30.93556 | 31009 ft | 469 kts | 178° |
| 2026-05-04 09:20 | 33.42247 | 30.93802 | 31010 ft | 469 kts | 178° |
| 2026-05-04 09:20 | 33.36855 | 30.94005 | 31010 ft | 469 kts | 178° |
| 2026-05-04 09:21 | 33.29284 | 30.94290 | 31008 ft | 469 kts | 178° |
| 2026-05-04 09:21 | 33.22772 | 30.94534 | 31008 ft | 469 kts | 178° |
| 2026-05-04 09:22 | 33.17335 | 30.94738 | 31009 ft | 469 kts | 178° |
| 2026-05-04 09:22 | 33.10856 | 30.94981 | 31009 ft | 469 kts | 178° |
| 2026-05-04 09:23 | 33.04376 | 30.95523 | 31012 ft | 470 kts | 174° |
| 2026-05-04 09:23 | 32.97895 | 30.96341 | 31008 ft | 469 kts | 174° |
| 2026-05-04 09:25 | 32.72055 | 30.99252 | 31012 ft | 469 kts | 174° |
| 2026-05-04 09:26 | 32.65569 | 30.99974 | 31009 ft | 469 kts | 174° |
| 2026-05-04 09:26 | 32.58013 | 31.00813 | 31010 ft | 469 kts | 174° |
| 2026-05-04 09:27 | 32.52612 | 31.01412 | 31010 ft | 469 kts | 174° |
| 2026-05-04 09:27 | 32.45067 | 31.02248 | 31010 ft | 469 kts | 174° |
| 2026-05-04 09:28 | 32.38617 | 31.02961 | 31009 ft | 469 kts | 174° |
| 2026-05-04 09:28 | 32.32140 | 31.03676 | 31008 ft | 469 kts | 174° |
| 2026-05-04 09:29 | 32.26725 | 31.04273 | 31009 ft | 469 kts | 174° |
| 2026-05-04 09:29 | 32.19182 | 31.05104 | 31009 ft | 469 kts | 174° |
| 2026-05-04 09:30 | 32.13804 | 31.05695 | 31009 ft | 469 kts | 174° |
| 2026-05-04 09:30 | 32.06226 | 31.06528 | 31007 ft | 469 kts | 174° |
| 2026-05-04 09:31 | 31.99760 | 31.07233 | 31008 ft | 469 kts | 174° |
| 2026-05-04 09:31 | 31.93298 | 31.07928 | 31008 ft | 469 kts | 174° |
| 2026-05-04 09:32 | 31.86807 | 31.08624 | 31000 ft | 468 kts | 174° |
| 2026-05-04 09:34 | 31.60929 | 31.11395 | 31010 ft | 469 kts | 174° |
| 2026-05-04 09:34 | 31.54454 | 31.12086 | 31010 ft | 469 kts | 174° |
| 2026-05-04 09:35 | 31.47976 | 31.13032 | 31019 ft | 469 kts | 170° |
| 2026-05-04 09:35 | 31.41600 | 31.14333 | 31012 ft | 469 kts | 170° |
| 2026-05-04 09:37 | 31.15918 | 31.19176 | 31008 ft | 469 kts | 171° |
| 2026-05-04 09:38 | 31.09500 | 31.20370 | 31008 ft | 469 kts | 171° |
| 2026-05-04 09:38 | 31.03064 | 31.21567 | 31008 ft | 469 kts | 171° |
| 2026-05-04 09:39 | 30.96644 | 31.22759 | 31009 ft | 469 kts | 171° |
| 2026-05-04 09:39 | 30.90257 | 31.23943 | 31009 ft | 469 kts | 171° |
| 2026-05-04 09:40 | 30.83795 | 31.25135 | 31019 ft | 469 kts | 171° |
| 2026-05-04 09:40 | 30.77414 | 31.26311 | 31013 ft | 469 kts | 171° |
| 2026-05-04 09:42 | 30.51719 | 31.31046 | 31009 ft | 469 kts | 171° |
| 2026-05-04 09:43 | 30.45278 | 31.32229 | 31010 ft | 469 kts | 171° |
| 2026-05-04 09:43 | 30.38875 | 31.33406 | 31010 ft | 469 kts | 171° |
| 2026-05-04 09:44 | 30.32427 | 31.34590 | 31010 ft | 469 kts | 171° |
| 2026-05-04 09:46 | 30.07476 | 31.41564 | 31012 ft | 470 kts | 135° |
| 2026-05-04 09:46 | 30.03583 | 31.47322 | 31005 ft | 470 kts | 125° |
| 2026-05-04 09:47 | 29.99813 | 31.53410 | 31009 ft | 469 kts | 126° |
| 2026-05-04 09:49 | 29.84292 | 31.77563 | 31008 ft | 469 kts | 127° |
| 2026-05-04 09:51 | 29.70518 | 31.98398 | 31010 ft | 469 kts | 128° |
| 2026-05-04 09:51 | 29.66515 | 32.04289 | 31011 ft | 469 kts | 128° |
| 2026-05-04 09:52 | 29.62504 | 32.10193 | 31011 ft | 469 kts | 128° |
| 2026-05-04 09:52 | 29.59175 | 32.15089 | 31009 ft | 469 kts | 128° |
| 2026-05-04 09:53 | 29.55166 | 32.20976 | 31009 ft | 469 kts | 128° |
| 2026-05-04 09:53 | 29.51135 | 32.26888 | 31010 ft | 469 kts | 128° |
| 2026-05-04 09:54 | 29.46463 | 32.33730 | 31010 ft | 469 kts | 128° |
| 2026-05-04 09:54 | 29.42456 | 32.39588 | 31009 ft | 469 kts | 128° |
| 2026-05-04 09:55 | 29.38428 | 32.45467 | 31009 ft | 469 kts | 128° |
| 2026-05-04 09:55 | 29.34420 | 32.51310 | 31009 ft | 469 kts | 128° |
| 2026-05-04 09:56 | 29.30370 | 32.57206 | 31009 ft | 469 kts | 128° |
| 2026-05-04 09:56 | 29.26358 | 32.63026 | 31011 ft | 469 kts | 128° |
| 2026-05-04 09:57 | 29.22335 | 32.68822 | 31019 ft | 468 kts | 128° |
| 2026-05-04 09:57 | 29.18273 | 32.74676 | 31016 ft | 469 kts | 128° |
| 2026-05-04 09:58 | 29.14211 | 32.80508 | 31014 ft | 469 kts | 128° |
| 2026-05-04 09:58 | 29.10851 | 32.85322 | 31014 ft | 469 kts | 128° |
| 2026-05-04 10:00 | 28.93893 | 33.09533 | 31013 ft | 469 kts | 128° |
| 2026-05-04 10:04 | 28.66228 | 33.48671 | 27690 ft | 444 kts | 128° |
| 2026-05-04 10:04 | 28.63650 | 33.52305 | 26728 ft | 439 kts | 128° |
| 2026-05-04 10:04 | 28.61740 | 33.54997 | 25725 ft | 441 kts | 128° |
| 2026-05-04 10:04 | 28.59912 | 33.57570 | 24798 ft | 439 kts | 128° |
| 2026-05-04 10:05 | 28.58656 | 33.59338 | 24171 ft | 437 kts | 128° |
| 2026-05-04 10:05 | 28.57392 | 33.61116 | 23546 ft | 434 kts | 128° |
| 2026-05-04 10:05 | 28.54893 | 33.64629 | 22312 ft | 427 kts | 128° |
| 2026-05-04 10:05 | 28.53047 | 33.67230 | 21292 ft | 421 kts | 129° |
| 2026-05-04 10:06 | 28.51244 | 33.69779 | 20252 ft | 415 kts | 129° |
| 2026-05-04 10:06 | 28.51049 | 33.70054 | 20140 ft | 414 kts | 129° |
| 2026-05-04 10:06 | 28.49380 | 33.72407 | 19166 ft | 417 kts | 132° |
| 2026-05-04 10:08 | 28.38915 | 33.87071 | 13211 ft | 375 kts | 131° |
| 2026-05-04 10:08 | 28.37301 | 33.89325 | 12253 ft | 366 kts | 131° |
| 2026-05-04 10:08 | 28.36229 | 33.90822 | 11612 ft | 361 kts | 131° |
| 2026-05-04 10:08 | 28.34691 | 33.92968 | 11292 ft | 332 kts | 131° |
| 2026-05-04 10:09 | 28.33307 | 33.94902 | 11406 ft | 317 kts | 131° |
| 2026-05-04 10:09 | 28.31361 | 33.97602 | 11406 ft | 334 kts | 131° |
| 2026-05-04 10:09 | 28.29962 | 33.99644 | 11387 ft | 328 kts | 123° |
| 2026-05-04 10:09 | 28.29089 | 34.02096 | 11421 ft | 342 kts | 105° |
| 2026-05-04 10:10 | 28.28685 | 34.03770 | 11381 ft | 323 kts | 108° |
| 2026-05-04 10:10 | 28.28066 | 34.06132 | 11380 ft | 295 kts | 108° |
| 2026-05-04 10:10 | 28.27492 | 34.08258 | 11378 ft | 271 kts | 109° |
| 2026-05-04 10:10 | 28.26956 | 34.10200 | 11464 ft | 242 kts | 109° |
| 2026-05-04 10:11 | 28.26490 | 34.11880 | 11424 ft | 208 kts | 110° |
| 2026-05-04 10:11 | 28.25919 | 34.13905 | 10659 ft | 208 kts | 110° |
| 2026-05-04 10:11 | 28.25622 | 34.14953 | 10083 ft | 216 kts | 110° |
| 2026-05-04 10:11 | 28.25003 | 34.17139 | 8974 ft | 222 kts | 110° |
| 2026-05-04 10:12 | 28.24692 | 34.18236 | 8437 ft | 223 kts | 110° |
| 2026-05-04 10:12 | 28.24069 | 34.20435 | 7391 ft | 222 kts | 110° |
| 2026-05-04 10:12 | 28.23602 | 34.22080 | 6619 ft | 220 kts | 110° |
| 2026-05-04 10:12 | 28.23135 | 34.23723 | 5853 ft | 218 kts | 110° |
| 2026-05-04 10:13 | 28.22678 | 34.25332 | 5103 ft | 215 kts | 110° |
| 2026-05-04 10:13 | 28.22225 | 34.26924 | 4362 ft | 213 kts | 110° |
| 2026-05-04 10:13 | 28.21926 | 34.27973 | 3874 ft | 211 kts | 110° |
| 2026-05-04 10:13 | 28.21339 | 34.30035 | 3014 ft | 201 kts | 110° |
| 2026-05-04 10:14 | 28.21075 | 34.30971 | 3166 ft | 165 kts | 111° |
| 2026-05-04 10:14 | 28.20587 | 34.32657 | 3283 ft | 190 kts | 111° |
| 2026-05-04 10:16 | 28.17616 | 34.42084 | 1881 ft | 175 kts | 143° |
| 2026-05-04 10:16 | 28.16985 | 34.42524 | 1925 ft | 148 kts | 163° |
| 2026-05-04 10:16 | 28.15957 | 34.42929 | 2101 ft | 172 kts | 163° |
| 2026-05-04 10:16 | 28.14754 | 34.44201 | 1894 ft | 178 kts | 116° |
| 2026-05-04 10:17 | 28.14524 | 34.45044 | 1957 ft | 162 kts | 107° |
| 2026-05-04 10:17 | 28.13780 | 34.46744 | 1494 ft | 191 kts | 140° |
| 2026-05-04 10:19 | 28.07156 | 34.48653 | 1144 ft | 157 kts | 212° |
| 2026-05-04 10:19 | 28.05952 | 34.47755 | 1107 ft | 154 kts | 218° |
| 2026-05-04 10:19 | 28.05376 | 34.47269 | 1091 ft | 154 kts | 220° |
| 2026-05-04 10:19 | 28.04550 | 34.46514 | 985 ft | 157 kts | 222° |
| 2026-05-04 10:20 | 28.03763 | 34.45704 | 944 ft | 151 kts | 226° |
| 2026-05-04 10:20 | 28.02754 | 34.44575 | 883 ft | 151 kts | 226° |
| 2026-05-04 10:20 | 28.01980 | 34.43702 | 782 ft | 163 kts | 227° |
| 2026-05-04 10:20 | 28.01428 | 34.43074 | 722 ft | 175 kts | 226° |
| 2026-05-04 10:21 | 28.00574 | 34.42168 | 565 ft | 161 kts | 224° |
| 2026-05-04 10:21 | 27.99526 | 34.41065 | 263 ft | 149 kts | 225° |
| 2026-05-04 10:21 | 27.99032 | 34.40545 | 184 ft | 142 kts | 225° |
| 2026-05-04 10:21 | 27.98037 | 34.39504 | 167 ft | 152 kts | 224° |
| 2026-05-04 10:22 | 27.96991 | 34.38382 | 156 ft | 79 kts | 213° |
| 2026-05-04 10:22 | 27.96815 | 34.38210 | 155 ft | 5 kts | 223° |
| 2026-05-04 10:22 | 27.96846 | 34.38244 | 155 ft | 12 kts | 226° |
| 2026-05-04 10:23 | 27.96875 | 34.38338 | 156 ft | 5 kts | 267° |
| 2026-05-04 10:23 | 27.96878 | 34.38285 | 156 ft | 10 kts | 279° |
| 2026-05-04 10:25 | 27.97181 | 34.38077 | 156 ft | 14 kts | 314° |
| 2026-05-04 10:25 | 27.97223 | 34.38027 | 156 ft | 6 kts | 312° |
| 2026-05-04 10:25 | 27.97252 | 34.38003 | 155 ft | 5 kts | 359° |
| 2026-05-04 10:25 | 27.97265 | 34.38025 | 156 ft | 3 kts | 63° |
| 2026-05-04 10:26 | 27.97270 | 34.38052 | 155 ft | 0 kts | 133° |
| 2026-05-04 10:26 | 27.97263 | 34.38063 | 155 ft | 5 kts | 129° |
| 2026-05-04 10:26 | 27.97239 | 34.38097 | 156 ft | 0 kts | 128° |